createdAt,value
2022-08-17T00:00:49.684Z,13.93
2022-08-17T00:03:23.770Z,13.89
2022-08-17T00:06:01.118Z,13.90
2022-08-17T00:08:39.586Z,13.87
2022-08-17T00:11:14.097Z,13.83
2022-08-17T00:13:56.673Z,13.79
2022-08-17T00:16:55.611Z,13.76
2022-08-17T00:19:27.821Z,13.71
2022-08-17T00:22:32.988Z,13.72
2022-08-17T00:24:51.879Z,13.72
2022-08-17T00:27:22.725Z,13.69
2022-08-17T00:29:53.277Z,13.75
2022-08-17T00:33:12.213Z,13.79
2022-08-17T00:35:52.397Z,13.83
2022-08-17T00:38:38.642Z,13.82
2022-08-17T00:41:30.971Z,13.79
2022-08-17T00:44:07.240Z,13.83
2022-08-17T00:47:00.345Z,13.82
2022-08-17T00:49:35.415Z,13.87
2022-08-17T01:06:44.590Z,13.85
2022-08-17T01:09:15.980Z,13.85
2022-08-17T01:11:47.774Z,13.83
2022-08-17T01:14:18.256Z,13.85
2022-08-17T01:16:48.535Z,13.85
2022-08-17T01:19:26.397Z,13.86
2022-08-17T01:22:11.097Z,13.82
2022-08-17T01:24:48.722Z,13.78
2022-08-17T01:27:20.527Z,13.79
2022-08-17T01:29:59.435Z,13.80
2022-08-17T01:32:31.558Z,13.83
2022-08-17T01:35:03.296Z,13.86
2022-08-17T01:37:37.041Z,13.85
2022-08-17T01:40:32.665Z,13.79
2022-08-17T01:43:13.244Z,13.79
2022-08-17T01:45:50.044Z,13.83
2022-08-17T01:48:36.196Z,13.79
2022-08-17T01:51:08.743Z,13.83
2022-08-17T01:53:42.879Z,13.85
2022-08-17T01:56:16.201Z,13.85
2022-08-17T01:58:46.811Z,13.83
2022-08-17T02:01:25.535Z,13.86
2022-08-17T02:04:00.828Z,13.87
2022-08-17T02:06:45.207Z,13.86
2022-08-17T02:09:30.230Z,13.89
2022-08-17T02:12:39.328Z,13.90
2022-08-17T02:14:55.536Z,13.89
2022-08-17T02:17:24.782Z,13.93
2022-08-17T02:19:54.627Z,13.96
2022-08-17T02:22:26.754Z,13.96
2022-08-17T02:25:01.934Z,13.98
2022-08-17T02:27:32.112Z,13.99
2022-08-17T02:30:01.948Z,13.98
2022-08-17T02:32:32.575Z,13.95
2022-08-17T02:35:03.081Z,13.98
2022-08-17T02:37:33.372Z,14.00
2022-08-17T02:40:04.637Z,14.05
2022-08-17T02:42:41.304Z,14.03
2022-08-17T02:45:17.645Z,14.06
2022-08-17T02:47:48.377Z,14.08
2022-08-17T02:50:25.679Z,14.06
2022-08-17T02:53:01.765Z,14.06
2022-08-17T02:55:44.258Z,14.06
2022-08-17T02:58:14.718Z,14.06
2022-08-17T03:01:09.712Z,14.10
2022-08-17T03:03:40.450Z,14.12
2022-08-17T03:06:10.683Z,14.10
2022-08-17T03:08:41.724Z,14.06
2022-08-17T03:11:11.982Z,14.05
2022-08-17T03:13:41.781Z,14.05
2022-08-17T03:16:11.705Z,14.08
2022-08-17T03:18:41.458Z,14.09
2022-08-17T03:21:10.773Z,14.05
2022-08-17T03:23:42.383Z,14.08
2022-08-17T03:26:15.585Z,14.09
2022-08-17T03:28:46.411Z,14.09
2022-08-17T03:31:16.149Z,14.09
2022-08-17T03:33:46.906Z,14.08
2022-08-17T03:36:16.913Z,14.03
2022-08-17T03:38:46.651Z,14.03
2022-08-17T03:41:16.108Z,14.06
2022-08-17T03:43:45.774Z,14.00
2022-08-17T03:46:35.325Z,14.00
2022-08-17T03:49:26.516Z,14.00
2022-08-17T03:52:17.141Z,14.00
2022-08-17T03:55:05.688Z,14.00
2022-08-17T03:57:35.725Z,13.99
2022-08-17T04:00:05.888Z,13.99
2022-08-17T04:02:41.552Z,13.96
2022-08-17T04:05:12.136Z,13.96
2022-08-17T04:07:42.981Z,14.02
2022-08-17T04:10:12.932Z,13.98
2022-08-17T04:12:53.952Z,13.99
2022-08-17T04:15:24.438Z,13.98
2022-08-17T04:17:54.702Z,13.92
2022-08-17T04:20:26.442Z,13.90
2022-08-17T04:23:19.610Z,13.92
2022-08-17T04:25:52.445Z,13.93
2022-08-17T04:28:22.945Z,13.90
2022-08-17T04:30:53.051Z,13.86
2022-08-17T04:33:27.987Z,13.87
2022-08-17T04:36:01.309Z,13.90
2022-08-17T04:38:34.158Z,13.89
2022-08-17T04:41:22.582Z,13.86
2022-08-17T04:43:57.096Z,13.83
2022-08-17T04:46:36.557Z,13.85
2022-08-17T04:49:10.085Z,13.87
2022-08-17T04:51:54.588Z,13.83
2022-08-17T04:54:26.759Z,13.90
2022-08-17T04:56:56.778Z,13.95
2022-08-17T04:59:26.721Z,13.87
2022-08-17T05:01:55.970Z,13.90
2022-08-17T05:04:33.891Z,13.90
2022-08-17T05:07:05.844Z,13.82
2022-08-17T05:09:35.597Z,13.86
2022-08-17T05:12:05.493Z,13.87
2022-08-17T05:14:35.127Z,13.89
2022-08-17T05:17:07.007Z,13.87
2022-08-17T05:19:42.273Z,13.83
2022-08-17T05:22:13.081Z,13.80
2022-08-17T05:24:53.456Z,13.82
2022-08-17T05:27:25.242Z,13.79
2022-08-17T05:30:00.017Z,13.83
2022-08-17T05:32:38.321Z,13.78
2022-08-17T05:35:10.777Z,13.79
2022-08-17T05:37:40.569Z,13.76
2022-08-17T05:40:11.619Z,13.71
2022-08-17T05:42:42.106Z,13.71
2022-08-17T05:45:13.222Z,13.76
2022-08-17T05:47:45.926Z,13.75
2022-08-17T05:50:26.511Z,13.72
2022-08-17T05:53:16.983Z,13.76
2022-08-17T05:55:46.876Z,13.79
2022-08-17T05:58:27.507Z,13.83
2022-08-17T06:01:24.083Z,13.73
2022-08-17T06:03:56.813Z,13.62
2022-08-17T06:07:02.448Z,13.62
2022-08-17T06:09:51.712Z,13.61
2022-08-17T06:12:27.355Z,13.59
2022-08-17T06:15:31.831Z,13.62
2022-08-17T06:18:09.413Z,13.61
2022-08-17T06:20:54.672Z,13.59
2022-08-17T06:23:33.945Z,13.55
2022-08-17T06:26:12.698Z,13.50
2022-08-17T06:29:04.346Z,13.54
2022-08-17T06:31:40.918Z,13.54
2022-08-17T06:34:13.585Z,13.57
2022-08-17T06:37:06.057Z,13.54
2022-08-17T06:39:44.616Z,13.50
2022-08-17T06:43:04.073Z,13.47
2022-08-17T06:46:02.853Z,13.44
2022-08-17T06:59:12.507Z,13.34
2022-08-17T07:01:43.959Z,13.31
2022-08-17T07:04:24.657Z,13.34
2022-08-17T07:07:33.410Z,13.30
2022-08-17T07:10:04.043Z,13.22
2022-08-17T07:12:39.650Z,13.18
2022-08-17T07:15:26.401Z,13.25
2022-08-17T07:17:57.420Z,13.22
2022-08-17T07:20:28.980Z,13.25
2022-08-17T07:23:20.420Z,13.30
2022-08-17T07:25:51.751Z,13.24
2022-08-17T07:28:25.617Z,13.28
2022-08-17T07:30:56.608Z,13.27
2022-08-17T07:33:30.270Z,13.27
2022-08-17T07:36:02.927Z,13.21
2022-08-17T07:38:37.222Z,13.24
2022-08-17T07:41:10.032Z,13.25
2022-08-17T07:43:42.757Z,13.24
2022-08-17T07:46:38.831Z,13.22
2022-08-17T07:49:12.224Z,13.20
2022-08-17T07:51:59.988Z,13.20
2022-08-17T07:54:44.497Z,13.17
2022-08-17T07:57:14.427Z,13.15
2022-08-17T07:59:45.165Z,13.20
2022-08-17T08:02:41.447Z,13.24
2022-08-17T08:05:49.679Z,13.25
2022-08-17T08:08:38.807Z,13.18
2022-08-17T08:11:16.380Z,13.13
2022-08-17T08:13:47.119Z,13.11
2022-08-17T08:16:33.141Z,13.13
2022-08-17T08:19:04.556Z,13.15
2022-08-17T08:21:56.228Z,13.13
2022-08-17T08:25:18.812Z,13.10
2022-08-17T08:28:07.602Z,13.15
2022-08-17T08:30:44.155Z,13.15
2022-08-17T08:33:42.960Z,13.17
2022-08-17T08:37:12.819Z,13.11
2022-08-17T08:40:03.949Z,13.04
2022-08-17T08:42:36.824Z,13.07
2022-08-17T08:45:21.483Z,13.08
2022-08-17T08:48:05.752Z,13.07
2022-08-17T08:50:48.622Z,13.07
2022-08-17T08:53:52.028Z,13.04
2022-08-17T08:57:23.310Z,12.99
2022-08-17T09:00:10.607Z,12.94
2022-08-17T09:03:11.357Z,12.97
2022-08-17T09:06:02.495Z,12.99
2022-08-17T09:08:51.500Z,12.90
2022-08-17T09:11:30.374Z,12.94
2022-08-17T09:14:21.478Z,12.96
2022-08-17T09:17:07.590Z,12.99
2022-08-17T09:19:46.452Z,12.96
2022-08-17T09:22:51.642Z,12.96
2022-08-17T09:25:29.537Z,12.96
2022-08-17T09:28:06.480Z,12.99
2022-08-17T09:30:49.083Z,12.97
2022-08-17T09:33:28.083Z,12.96
2022-08-17T09:36:05.817Z,12.92
2022-08-17T09:38:42.805Z,12.90
2022-08-17T09:41:23.733Z,12.94
2022-08-17T09:44:10.759Z,12.90
2022-08-17T09:47:07.496Z,12.83
2022-08-17T09:49:52.380Z,12.82
2022-08-17T09:52:28.535Z,12.75
2022-08-17T09:55:02.272Z,12.76
2022-08-17T09:58:06.215Z,12.75
2022-08-17T10:00:49.051Z,12.72
2022-08-17T10:03:58.376Z,12.72
2022-08-17T10:06:35.033Z,12.75
2022-08-17T10:09:15.920Z,12.72
2022-08-17T10:12:21.517Z,12.70
2022-08-17T10:15:07.909Z,12.75
2022-08-17T10:18:09.122Z,12.76
2022-08-17T10:21:26.743Z,12.79
2022-08-17T10:24:37.171Z,12.84
2022-08-17T10:27:13.958Z,12.84
2022-08-17T10:29:58.018Z,12.87
2022-08-17T10:32:33.993Z,12.82
2022-08-17T10:35:13.484Z,12.82
2022-08-17T10:38:10.300Z,12.87
2022-08-17T10:41:18.807Z,12.86
2022-08-17T10:44:39.852Z,12.96
2022-08-17T10:47:13.878Z,13.01
2022-08-17T10:49:50.659Z,13.13
2022-08-17T10:52:28.969Z,13.18
2022-08-17T10:55:14.955Z,13.21
2022-08-17T10:57:48.003Z,13.20
2022-08-17T11:00:25.618Z,13.28
2022-08-17T11:02:59.496Z,13.31
2022-08-17T11:06:06.329Z,13.32
2022-08-17T11:08:45.963Z,13.21
2022-08-17T11:11:20.614Z,13.35
2022-08-17T11:14:15.460Z,13.52
2022-08-17T11:16:51.784Z,13.52
2022-08-17T11:20:02.571Z,13.55
2022-08-17T11:23:08.545Z,13.48
2022-08-17T11:25:44.296Z,13.58
2022-08-17T11:28:21.251Z,13.40
2022-08-17T11:30:53.422Z,13.50
2022-08-17T11:33:38.112Z,13.76
2022-08-17T11:36:32.799Z,13.89
2022-08-17T11:39:14.969Z,13.73
2022-08-17T11:42:06.959Z,13.54
2022-08-17T11:45:04.929Z,13.72
2022-08-17T11:48:27.277Z,13.57
2022-08-17T11:51:28.699Z,13.80
2022-08-17T11:54:30.529Z,14.08
2022-08-17T11:56:53.943Z,14.17
2022-08-17T11:59:43.168Z,14.34
2022-08-17T12:02:36.100Z,14.17
2022-08-17T12:05:28.497Z,14.13
2022-08-17T12:08:06.681Z,14.21
2022-08-17T12:10:40.480Z,14.60
2022-08-17T12:13:17.841Z,14.63
2022-08-17T12:15:53.833Z,14.67
2022-08-17T12:18:36.598Z,14.65
2022-08-17T12:21:29.891Z,14.61
2022-08-17T12:24:16.187Z,14.61
2022-08-17T12:26:58.368Z,14.68
2022-08-17T12:29:35.727Z,14.68
2022-08-17T12:32:15.455Z,14.65
2022-08-17T12:34:48.595Z,14.51
2022-08-17T12:37:22.820Z,14.50
2022-08-17T12:40:05.387Z,14.54
2022-08-17T12:42:38.921Z,14.68
2022-08-17T12:45:30.778Z,14.74
2022-08-17T12:48:12.903Z,15.05
2022-08-17T12:50:45.966Z,14.99
2022-08-17T12:53:23.807Z,15.36
2022-08-17T12:55:55.313Z,15.77
2022-08-17T12:58:36.231Z,15.94
2022-08-17T13:01:10.736Z,16.00
2022-08-17T13:03:50.585Z,16.02
2022-08-17T13:06:33.433Z,16.09
2022-08-17T13:09:16.831Z,16.09
2022-08-17T13:11:57.468Z,16.15
2022-08-17T13:14:27.676Z,16.02
2022-08-17T13:17:01.218Z,16.28
2022-08-17T13:19:41.110Z,16.60
2022-08-17T13:22:16.619Z,16.74
2022-08-17T13:24:59.346Z,16.81
2022-08-17T13:27:31.463Z,17.39
2022-08-17T13:30:07.091Z,17.78
2022-08-17T13:32:45.136Z,19.02
2022-08-17T13:35:40.236Z,18.91
2022-08-17T13:38:40.599Z,19.12
2022-08-17T13:41:38.079Z,18.73
2022-08-17T13:44:41.537Z,19.13
2022-08-17T13:47:22.094Z,19.98
2022-08-17T13:49:53.152Z,20.25
2022-08-17T13:52:42.292Z,20.52
2022-08-17T13:55:22.740Z,21.01
2022-08-17T13:58:06.943Z,21.15
2022-08-17T14:00:37.933Z,21.66
2022-08-17T14:03:07.911Z,21.85
2022-08-17T14:05:39.998Z,21.83
2022-08-17T14:08:14.057Z,22.03
2022-08-17T14:10:46.115Z,21.85
2022-08-17T14:13:16.497Z,22.00
2022-08-17T14:15:54.854Z,22.64
2022-08-17T14:18:55.401Z,23.15
2022-08-17T14:21:17.503Z,22.95
2022-08-17T14:23:49.065Z,22.23
2022-08-17T14:26:25.023Z,22.45
2022-08-17T14:28:56.733Z,22.60
2022-08-17T14:31:28.603Z,22.72
2022-08-17T14:34:00.103Z,23.43
2022-08-17T14:36:30.027Z,23.30
2022-08-17T14:38:59.775Z,23.05
2022-08-17T14:41:30.107Z,23.74
2022-08-17T14:43:59.880Z,23.93
2022-08-17T14:46:29.824Z,23.70
2022-08-17T14:49:00.846Z,23.73
2022-08-17T14:51:31.492Z,23.42
2022-08-17T14:54:01.331Z,23.82
2022-08-17T14:56:31.761Z,24.00
2022-08-17T14:59:08.178Z,24.29
2022-08-17T15:01:37.960Z,24.14
2022-08-17T15:04:08.151Z,24.38
2022-08-17T15:06:37.904Z,24.86
2022-08-17T15:09:08.048Z,25.48
2022-08-17T15:11:38.390Z,25.75
2022-08-17T15:14:08.514Z,26.00
2022-08-17T15:16:38.840Z,26.06
2022-08-17T15:19:09.768Z,25.68
2022-08-17T15:21:39.489Z,25.18
2022-08-17T15:24:10.395Z,25.59
2022-08-17T15:26:40.492Z,25.78
2022-08-17T15:29:11.412Z,25.44
2022-08-17T15:31:41.405Z,25.64
2022-08-17T15:34:11.149Z,25.76
2022-08-17T15:36:43.841Z,26.00
2022-08-17T15:39:19.807Z,25.62
2022-08-17T15:41:58.413Z,25.76
2022-08-17T15:44:32.601Z,25.86
2022-08-17T15:47:05.159Z,25.76
2022-08-17T15:49:34.884Z,25.86
2022-08-17T15:52:19.251Z,25.78
2022-08-17T15:54:55.537Z,25.68
2022-08-17T15:57:26.994Z,25.86
2022-08-17T15:59:59.200Z,25.71
2022-08-17T16:03:45.049Z,25.44
2022-08-17T16:05:25.458Z,26.12
2022-08-17T16:07:57.177Z,25.86
2022-08-17T16:10:35.092Z,26.00
2022-08-17T16:13:17.883Z,26.36
2022-08-17T16:15:57.123Z,26.23
2022-08-17T16:18:32.043Z,26.24
2022-08-17T16:21:23.836Z,26.50
2022-08-17T16:23:57.856Z,27.02
2022-08-17T16:26:30.011Z,27.22
2022-08-17T16:29:02.140Z,27.33
2022-08-17T16:31:32.329Z,26.99
2022-08-17T16:34:17.766Z,27.43
2022-08-17T16:36:50.560Z,27.40
2022-08-17T16:39:28.081Z,27.43
2022-08-17T16:41:58.745Z,27.43
2022-08-17T16:44:32.078Z,28.19
2022-08-17T16:47:02.485Z,28.12
2022-08-17T16:49:36.605Z,27.74
2022-08-17T16:52:11.489Z,27.71
2022-08-17T16:54:44.610Z,28.12
2022-08-17T16:57:16.452Z,28.18
2022-08-17T16:59:52.739Z,29.20
2022-08-17T17:02:32.684Z,29.66
2022-08-17T17:05:28.654Z,30.57
2022-08-17T17:08:13.983Z,30.44
2022-08-17T17:10:51.951Z,31.08
2022-08-17T17:13:38.855Z,31.25
2022-08-17T17:16:09.102Z,30.77
2022-08-17T17:18:44.896Z,30.74
2022-08-17T17:21:20.066Z,31.69
2022-08-17T17:24:06.080Z,32.46
2022-08-17T17:26:41.495Z,32.07
2022-08-17T17:29:49.423Z,32.72
2022-08-17T17:32:33.297Z,31.91
2022-08-17T17:35:13.451Z,32.41
2022-08-17T17:37:46.946Z,33.00
2022-08-17T17:40:44.963Z,34.13
2022-08-17T17:43:38.324Z,33.88
2022-08-17T17:46:48.635Z,34.01
2022-08-17T17:49:20.083Z,34.16
2022-08-17T17:52:14.269Z,34.23
2022-08-17T17:54:54.334Z,32.24
2022-08-17T17:57:30.964Z,33.19
2022-08-17T18:00:10.019Z,33.07
2022-08-17T18:02:51.198Z,33.16
2022-08-17T18:05:46.784Z,33.16
2022-08-17T18:08:33.995Z,34.97
2022-08-17T18:11:25.249Z,34.97
2022-08-17T18:14:32.038Z,34.98
2022-08-17T18:17:03.383Z,34.94
2022-08-17T18:19:34.070Z,35.85
2022-08-17T18:22:14.968Z,36.34
2022-08-17T18:24:48.934Z,35.65
2022-08-17T18:27:33.280Z,35.28
2022-08-17T18:30:28.408Z,35.66
2022-08-17T18:33:23.947Z,35.45
2022-08-17T18:35:58.475Z,34.61
2022-08-17T18:38:34.997Z,35.21
2022-08-17T18:41:25.553Z,34.74
2022-08-17T18:44:07.363Z,34.71
2022-08-17T18:46:39.709Z,34.74
2022-08-17T18:49:29.477Z,34.59
2022-08-17T18:52:19.270Z,35.15
2022-08-17T18:55:02.898Z,34.79
2022-08-17T18:57:49.369Z,34.96
2022-08-17T19:00:41.784Z,35.25
2022-08-17T19:03:17.484Z,35.44
2022-08-17T19:05:51.306Z,35.52
2022-08-17T19:08:32.337Z,35.78
2022-08-17T19:11:21.041Z,36.67
2022-08-17T19:13:59.376Z,36.54
2022-08-17T19:16:44.435Z,36.02
2022-08-17T19:19:47.058Z,34.33
2022-08-17T19:22:38.131Z,29.68
2022-08-17T19:25:17.105Z,27.90
2022-08-17T19:27:58.804Z,27.02
2022-08-17T19:30:29.157Z,26.27
2022-08-17T19:32:59.575Z,25.79
2022-08-17T19:35:44.579Z,25.49
2022-08-17T19:38:28.295Z,25.20
2022-08-17T19:41:20.834Z,25.04
2022-08-17T19:44:24.949Z,24.76
2022-08-17T19:47:30.747Z,24.63
2022-08-17T19:50:15.573Z,24.42
2022-08-17T19:53:00.257Z,24.14
2022-08-17T19:55:53.930Z,23.97
2022-08-17T19:58:47.518Z,23.82
2022-08-17T20:01:34.701Z,23.70
2022-08-17T20:04:34.193Z,23.56
2022-08-17T20:07:37.295Z,23.36
2022-08-17T20:10:12.427Z,23.23
2022-08-17T20:12:45.737Z,23.05
2022-08-17T20:15:40.707Z,22.92
2022-08-17T20:18:31.425Z,22.72
2022-08-17T20:21:08.510Z,22.64
2022-08-17T20:24:01.199Z,22.44
2022-08-17T20:26:57.939Z,22.25
2022-08-17T20:29:39.971Z,21.99
2022-08-17T20:32:26.272Z,21.78
2022-08-17T20:35:28.591Z,21.62
2022-08-17T20:38:13.906Z,21.41
2022-08-17T20:40:56.325Z,21.17
2022-08-17T20:43:35.394Z,21.01
2022-08-17T20:46:36.088Z,21.07
2022-08-17T20:49:25.263Z,20.86
2022-08-17T20:52:02.381Z,20.67
2022-08-17T20:54:52.748Z,20.53
2022-08-17T20:57:46.669Z,20.52
2022-08-17T21:00:31.547Z,20.59
2022-08-17T21:03:24.285Z,20.32
2022-08-17T21:05:59.814Z,20.07
2022-08-17T21:08:54.392Z,19.94
2022-08-17T21:11:58.194Z,19.82
2022-08-17T21:14:29.372Z,19.71
2022-08-17T21:17:08.114Z,19.56
2022-08-17T21:20:10.282Z,19.34
2022-08-17T21:23:17.867Z,19.15
2022-08-17T21:26:19.599Z,19.05
2022-08-17T21:29:31.990Z,18.99
2022-08-17T21:32:06.290Z,18.98
2022-08-17T21:34:37.393Z,18.91
2022-08-17T21:37:25.462Z,18.82
2022-08-17T21:40:03.427Z,18.78
2022-08-17T21:42:36.724Z,18.75
2022-08-17T21:45:28.704Z,18.72
2022-08-17T21:48:28.569Z,18.71
2022-08-17T21:51:17.149Z,18.64
2022-08-17T21:53:57.002Z,18.62
2022-08-17T21:56:40.162Z,18.84
2022-08-17T21:59:25.923Z,18.84
2022-08-17T22:02:01.242Z,18.79
2022-08-17T22:04:43.375Z,18.68
2022-08-17T22:07:15.372Z,18.62
2022-08-17T22:09:50.326Z,18.58
2022-08-17T22:12:27.925Z,18.54
2022-08-17T22:15:03.446Z,18.61
2022-08-17T22:17:47.998Z,18.75
2022-08-17T22:20:20.602Z,18.75
2022-08-17T22:23:10.591Z,18.65
2022-08-17T22:25:58.568Z,18.60
2022-08-17T22:28:50.001Z,18.44
2022-08-17T22:31:56.354Z,18.38
2022-08-17T22:34:27.365Z,18.30
2022-08-17T22:37:29.708Z,18.20
2022-08-17T22:40:01.644Z,18.13
2022-08-17T22:42:32.352Z,18.04
2022-08-17T22:45:03.204Z,18.02
2022-08-17T22:47:42.272Z,18.03
2022-08-17T22:50:25.255Z,18.14
2022-08-17T22:53:22.678Z,18.23
2022-08-17T22:56:14.879Z,18.16
2022-08-17T22:59:24.640Z,18.14
2022-08-17T23:02:14.880Z,18.13
2022-08-17T23:04:50.617Z,18.09
2022-08-17T23:07:23.089Z,18.03
2022-08-17T23:09:54.558Z,18.00
2022-08-17T23:12:28.350Z,17.99
2022-08-17T23:15:03.422Z,17.93
2022-08-17T23:17:37.607Z,17.93
2022-08-17T23:20:10.288Z,17.92
2022-08-17T23:22:52.438Z,17.92
2022-08-17T23:25:32.305Z,18.03
2022-08-17T23:28:04.864Z,18.07
2022-08-17T23:30:41.113Z,18.10
2022-08-17T23:33:19.442Z,18.16
2022-08-17T23:35:49.871Z,18.16
2022-08-17T23:38:19.585Z,18.20
2022-08-17T23:40:49.357Z,18.18
2022-08-17T23:43:24.412Z,18.20
2022-08-17T23:45:58.511Z,18.20
2022-08-17T23:48:35.844Z,18.16
2022-08-17T23:51:11.640Z,18.12
2022-08-17T23:53:47.465Z,18.06
2022-08-17T23:56:23.065Z,18.03
2022-08-17T23:58:55.950Z,17.99
